sensor_id;sensor_type;location;lat;lon;timestamp;P1;durP1;ratioP1;P2;durP2;ratioP2
7162;SDS011;3623;47.098;15.446;2022-10-20T00:01:51;6.30;;;5.70;;
7162;SDS011;3623;47.098;15.446;2022-10-20T00:04:19;5.78;;;5.38;;
7162;SDS011;3623;47.098;15.446;2022-10-20T00:06:46;10.52;;;5.47;;
7162;SDS011;3623;47.098;15.446;2022-10-20T00:09:13;5.20;;;4.78;;
7162;SDS011;3623;47.098;15.446;2022-10-20T00:11:41;5.78;;;4.72;;
7162;SDS011;3623;47.098;15.446;2022-10-20T00:14:11;9.73;;;5.30;;
7162;SDS011;3623;47.098;15.446;2022-10-20T00:16:38;4.28;;;3.97;;
7162;SDS011;3623;47.098;15.446;2022-10-20T00:19:08;6.15;;;5.10;;
7162;SDS011;3623;47.098;15.446;2022-10-20T00:21:51;9.63;;;5.55;;
7162;SDS011;3623;47.098;15.446;2022-10-20T00:24:19;6.43;;;5.72;;
7162;SDS011;3623;47.098;15.446;2022-10-20T00:26:46;6.65;;;5.60;;
7162;SDS011;3623;47.098;15.446;2022-10-20T00:29:13;7.72;;;5.53;;
7162;SDS011;3623;47.098;15.446;2022-10-20T00:31:41;5.25;;;4.75;;
7162;SDS011;3623;47.098;15.446;2022-10-20T00:34:08;5.30;;;4.75;;
7162;SDS011;3623;47.098;15.446;2022-10-20T00:36:36;8.20;;;5.28;;
7162;SDS011;3623;47.098;15.446;2022-10-20T00:39:11;5.15;;;4.75;;
7162;SDS011;3623;47.098;15.446;2022-10-20T00:41:47;8.20;;;5.18;;
7162;SDS011;3623;47.098;15.446;2022-10-20T00:47:24;5.18;;;4.28;;
7162;SDS011;3623;47.098;15.446;2022-10-20T00:50:00;5.38;;;4.95;;
7162;SDS011;3623;47.098;15.446;2022-10-20T00:52:44;6.13;;;5.57;;
7162;SDS011;3623;47.098;15.446;2022-10-20T00:55:23;6.15;;;5.07;;
7162;SDS011;3623;47.098;15.446;2022-10-20T00:57:53;4.72;;;4.40;;
7162;SDS011;3623;47.098;15.446;2022-10-20T01:00:23;6.68;;;5.07;;
7162;SDS011;3623;47.098;15.446;2022-10-20T01:02:51;8.18;;;5.07;;
7162;SDS011;3623;47.098;15.446;2022-10-20T01:05:23;6.72;;;4.47;;
7162;SDS011;3623;47.098;15.446;2022-10-20T01:07:50;7.82;;;5.18;;
7162;SDS011;3623;47.098;15.446;2022-10-20T01:10:19;6.72;;;4.80;;
7162;SDS011;3623;47.098;15.446;2022-10-20T01:12:53;4.72;;;4.35;;
7162;SDS011;3623;47.098;15.446;2022-10-20T01:15:27;4.95;;;4.47;;
7162;SDS011;3623;47.098;15.446;2022-10-20T01:18:03;5.80;;;4.13;;
7162;SDS011;3623;47.098;15.446;2022-10-20T01:29:29;4.93;;;4.53;;
7162;SDS011;3623;47.098;15.446;2022-10-20T01:32:09;4.90;;;4.28;;
7162;SDS011;3623;47.098;15.446;2022-10-20T01:34:49;4.55;;;4.15;;
7162;SDS011;3623;47.098;15.446;2022-10-20T01:37:36;5.05;;;4.55;;
7162;SDS011;3623;47.098;15.446;2022-10-20T01:40:16;3.92;;;3.63;;
7162;SDS011;3623;47.098;15.446;2022-10-20T01:42:50;4.20;;;3.53;;
7162;SDS011;3623;47.098;15.446;2022-10-20T01:45:24;7.53;;;4.20;;
7162;SDS011;3623;47.098;15.446;2022-10-20T01:47:59;5.03;;;4.55;;
7162;SDS011;3623;47.098;15.446;2022-10-20T01:50:30;3.85;;;3.65;;
7162;SDS011;3623;47.098;15.446;2022-10-20T01:53:02;4.00;;;3.50;;
7162;SDS011;3623;47.098;15.446;2022-10-20T01:55:30;3.92;;;3.63;;
7162;SDS011;3623;47.098;15.446;2022-10-20T01:58:01;3.90;;;3.50;;
7162;SDS011;3623;47.098;15.446;2022-10-20T02:00:40;5.13;;;4.30;;
7162;SDS011;3623;47.098;15.446;2022-10-20T02:03:16;6.10;;;3.90;;
7162;SDS011;3623;47.098;15.446;2022-10-20T02:06:03;5.75;;;3.45;;
7162;SDS011;3623;47.098;15.446;2022-10-20T02:08:41;6.75;;;4.47;;
7162;SDS011;3623;47.098;15.446;2022-10-20T02:11:11;3.30;;;3.10;;
7162;SDS011;3623;47.098;15.446;2022-10-20T02:13:48;5.82;;;3.60;;
7162;SDS011;3623;47.098;15.446;2022-10-20T02:16:19;4.50;;;4.20;;
7162;SDS011;3623;47.098;15.446;2022-10-20T02:18:51;6.43;;;5.00;;
7162;SDS011;3623;47.098;15.446;2022-10-20T02:21:19;5.25;;;4.30;;
7162;SDS011;3623;47.098;15.446;2022-10-20T02:23:46;6.47;;;4.30;;
7162;SDS011;3623;47.098;15.446;2022-10-20T02:26:19;4.10;;;3.80;;
7162;SDS011;3623;47.098;15.446;2022-10-20T02:28:51;3.42;;;3.22;;
7162;SDS011;3623;47.098;15.446;2022-10-20T02:31:24;4.95;;;4.25;;
7162;SDS011;3623;47.098;15.446;2022-10-20T02:33:51;5.22;;;4.13;;
7162;SDS011;3623;47.098;15.446;2022-10-20T02:36:20;6.45;;;4.15;;
7162;SDS011;3623;47.098;15.446;2022-10-20T02:38:51;4.13;;;3.78;;
7162;SDS011;3623;47.098;15.446;2022-10-20T02:41:18;4.10;;;3.80;;
7162;SDS011;3623;47.098;15.446;2022-10-20T02:43:48;7.47;;;4.50;;
7162;SDS011;3623;47.098;15.446;2022-10-20T02:46:15;4.90;;;4.22;;
7162;SDS011;3623;47.098;15.446;2022-10-20T02:48:43;6.25;;;3.70;;
7162;SDS011;3623;47.098;15.446;2022-10-20T02:51:15;6.40;;;4.45;;
7162;SDS011;3623;47.098;15.446;2022-10-20T02:53:42;6.20;;;3.60;;
7162;SDS011;3623;47.098;15.446;2022-10-20T02:56:10;4.25;;;3.95;;
7162;SDS011;3623;47.098;15.446;2022-10-20T02:59:56;4.47;;;4.07;;
7162;SDS011;3623;47.098;15.446;2022-10-20T03:01:44;6.70;;;4.32;;
7162;SDS011;3623;47.098;15.446;2022-10-20T03:04:18;8.82;;;4.75;;
7162;SDS011;3623;47.098;15.446;2022-10-20T03:06:45;4.75;;;4.35;;
7162;SDS011;3623;47.098;15.446;2022-10-20T03:09:12;10.40;;;4.30;;
7162;SDS011;3623;47.098;15.446;2022-10-20T03:11:40;6.55;;;5.88;;
7162;SDS011;3623;47.098;15.446;2022-10-20T03:14:07;4.25;;;3.85;;
7162;SDS011;3623;47.098;15.446;2022-10-20T03:16:37;4.70;;;4.30;;
7162;SDS011;3623;47.098;15.446;2022-10-20T03:19:09;4.63;;;3.67;;
7162;SDS011;3623;47.098;15.446;2022-10-20T03:21:38;4.80;;;4.40;;
7162;SDS011;3623;47.098;15.446;2022-10-20T03:24:05;6.90;;;4.25;;
7162;SDS011;3623;47.098;15.446;2022-10-20T03:26:32;4.35;;;3.88;;
7162;SDS011;3623;47.098;15.446;2022-10-20T03:29:02;4.82;;;4.43;;
7162;SDS011;3623;47.098;15.446;2022-10-20T03:31:31;5.32;;;4.78;;
7162;SDS011;3623;47.098;15.446;2022-10-20T03:34:04;4.20;;;3.80;;
7162;SDS011;3623;47.098;15.446;2022-10-20T03:36:35;9.85;;;4.82;;
7162;SDS011;3623;47.098;15.446;2022-10-20T03:39:04;11.40;;;4.97;;
7162;SDS011;3623;47.098;15.446;2022-10-20T03:41:31;9.25;;;5.20;;
7162;SDS011;3623;47.098;15.446;2022-10-20T03:44:00;7.32;;;5.30;;
7162;SDS011;3623;47.098;15.446;2022-10-20T03:46:27;4.80;;;4.45;;
7162;SDS011;3623;47.098;15.446;2022-10-20T03:48:54;6.22;;;5.70;;
7162;SDS011;3623;47.098;15.446;2022-10-20T03:51:21;9.05;;;6.05;;
7162;SDS011;3623;47.098;15.446;2022-10-20T03:53:50;6.53;;;5.93;;
7162;SDS011;3623;47.098;15.446;2022-10-20T03:56:17;5.18;;;4.78;;
7162;SDS011;3623;47.098;15.446;2022-10-20T03:58:46;6.68;;;5.38;;
7162;SDS011;3623;47.098;15.446;2022-10-20T04:01:17;6.38;;;5.75;;
7162;SDS011;3623;47.098;15.446;2022-10-20T04:03:46;7.30;;;5.68;;
7162;SDS011;3623;47.098;15.446;2022-10-20T04:06:22;9.30;;;6.05;;
7162;SDS011;3623;47.098;15.446;2022-10-20T04:08:51;7.30;;;4.35;;
7162;SDS011;3623;47.098;15.446;2022-10-20T04:11:20;8.68;;;5.93;;
7162;SDS011;3623;47.098;15.446;2022-10-20T04:13:48;5.72;;;5.22;;
7162;SDS011;3623;47.098;15.446;2022-10-20T04:16:20;7.70;;;5.78;;
7162;SDS011;3623;47.098;15.446;2022-10-20T04:18:47;17.50;;;5.55;;
7162;SDS011;3623;47.098;15.446;2022-10-20T04:21:17;5.82;;;5.05;;
7162;SDS011;3623;47.098;15.446;2022-10-20T04:23:44;10.32;;;5.93;;
7162;SDS011;3623;47.098;15.446;2022-10-20T04:26:13;6.90;;;5.70;;
7162;SDS011;3623;47.098;15.446;2022-10-20T04:28:45;5.32;;;4.80;;
7162;SDS011;3623;47.098;15.446;2022-10-20T04:31:12;6.15;;;5.65;;
7162;SDS011;3623;47.098;15.446;2022-10-20T04:33:40;6.95;;;4.38;;
7162;SDS011;3623;47.098;15.446;2022-10-20T04:36:09;5.65;;;5.00;;
7162;SDS011;3623;47.098;15.446;2022-10-20T04:38:37;5.53;;;4.47;;
7162;SDS011;3623;47.098;15.446;2022-10-20T04:41:04;4.93;;;4.32;;
7162;SDS011;3623;47.098;15.446;2022-10-20T04:43:42;4.90;;;4.45;;
7162;SDS011;3623;47.098;15.446;2022-10-20T04:46:14;4.45;;;4.10;;
7162;SDS011;3623;47.098;15.446;2022-10-20T04:48:47;8.18;;;4.60;;
7162;SDS011;3623;47.098;15.446;2022-10-20T04:51:18;6.00;;;4.18;;
7162;SDS011;3623;47.098;15.446;2022-10-20T04:53:47;4.55;;;4.20;;
7162;SDS011;3623;47.098;15.446;2022-10-20T04:56:18;6.97;;;5.13;;
7162;SDS011;3623;47.098;15.446;2022-10-20T04:58:55;10.55;;;4.50;;
7162;SDS011;3623;47.098;15.446;2022-10-20T05:01:29;5.50;;;3.50;;
7162;SDS011;3623;47.098;15.446;2022-10-20T05:03:57;6.55;;;4.20;;
7162;SDS011;3623;47.098;15.446;2022-10-20T05:06:25;5.18;;;4.20;;
7162;SDS011;3623;47.098;15.446;2022-10-20T05:08:57;8.00;;;4.78;;
7162;SDS011;3623;47.098;15.446;2022-10-20T05:11:29;4.20;;;3.80;;
7162;SDS011;3623;47.098;15.446;2022-10-20T05:13:58;5.90;;;3.53;;
7162;SDS011;3623;47.098;15.446;2022-10-20T05:16:25;5.75;;;4.45;;
7162;SDS011;3623;47.098;15.446;2022-10-20T05:18:53;5.55;;;4.00;;
7162;SDS011;3623;47.098;15.446;2022-10-20T05:21:22;5.25;;;4.85;;
7162;SDS011;3623;47.098;15.446;2022-10-20T05:23:53;6.95;;;4.15;;
7162;SDS011;3623;47.098;15.446;2022-10-20T05:26:22;5.90;;;4.22;;
7162;SDS011;3623;47.098;15.446;2022-10-20T05:29:06;5.50;;;4.97;;
7162;SDS011;3623;47.098;15.446;2022-10-20T05:31:35;6.43;;;3.95;;
7162;SDS011;3623;47.098;15.446;2022-10-20T05:34:13;5.10;;;4.25;;
7162;SDS011;3623;47.098;15.446;2022-10-20T05:36:43;4.20;;;3.80;;
7162;SDS011;3623;47.098;15.446;2022-10-20T05:39:10;4.35;;;4.05;;
7162;SDS011;3623;47.098;15.446;2022-10-20T05:41:38;6.10;;;4.75;;
7162;SDS011;3623;47.098;15.446;2022-10-20T05:44:07;6.68;;;4.43;;
7162;SDS011;3623;47.098;15.446;2022-10-20T05:46:37;4.65;;;4.20;;
7162;SDS011;3623;47.098;15.446;2022-10-20T05:49:05;4.97;;;4.55;;
7162;SDS011;3623;47.098;15.446;2022-10-20T05:51:33;5.45;;;3.80;;
7162;SDS011;3623;47.098;15.446;2022-10-20T05:54:02;8.13;;;4.40;;
7162;SDS011;3623;47.098;15.446;2022-10-20T05:56:30;6.05;;;4.38;;
7162;SDS011;3623;47.098;15.446;2022-10-20T05:59:09;4.35;;;3.83;;
7162;SDS011;3623;47.098;15.446;2022-10-20T06:01:37;8.68;;;3.92;;
7162;SDS011;3623;47.098;15.446;2022-10-20T06:04:12;7.32;;;4.65;;
7162;SDS011;3623;47.098;15.446;2022-10-20T06:06:41;4.47;;;4.05;;
7162;SDS011;3623;47.098;15.446;2022-10-20T06:09:09;4.97;;;3.90;;
7162;SDS011;3623;47.098;15.446;2022-10-20T06:11:36;4.40;;;4.10;;
7162;SDS011;3623;47.098;15.446;2022-10-20T06:14:04;5.15;;;4.13;;
7162;SDS011;3623;47.098;15.446;2022-10-20T06:16:35;4.38;;;3.95;;
7162;SDS011;3623;47.098;15.446;2022-10-20T06:19:02;4.70;;;4.00;;
7162;SDS011;3623;47.098;15.446;2022-10-20T06:21:38;7.38;;;4.10;;
7162;SDS011;3623;47.098;15.446;2022-10-20T06:24:14;5.40;;;4.55;;
7162;SDS011;3623;47.098;15.446;2022-10-20T06:26:41;4.78;;;3.80;;
7162;SDS011;3623;47.098;15.446;2022-10-20T06:29:10;4.03;;;3.72;;
7162;SDS011;3623;47.098;15.446;2022-10-20T06:31:40;4.68;;;3.58;;
7162;SDS011;3623;47.098;15.446;2022-10-20T06:34:12;4.68;;;4.28;;
7162;SDS011;3623;47.098;15.446;2022-10-20T06:36:40;9.10;;;4.63;;
7162;SDS011;3623;47.098;15.446;2022-10-20T06:39:10;4.80;;;4.30;;
7162;SDS011;3623;47.098;15.446;2022-10-20T06:41:38;5.15;;;4.28;;
7162;SDS011;3623;47.098;15.446;2022-10-20T06:44:06;8.68;;;4.45;;
7162;SDS011;3623;47.098;15.446;2022-10-20T06:46:34;4.53;;;4.10;;
7162;SDS011;3623;47.098;15.446;2022-10-20T06:49:04;4.03;;;3.65;;
7162;SDS011;3623;47.098;15.446;2022-10-20T06:51:39;3.85;;;3.60;;
7162;SDS011;3623;47.098;15.446;2022-10-20T06:54:06;3.90;;;3.53;;
7162;SDS011;3623;47.098;15.446;2022-10-20T06:56:37;4.70;;;3.85;;
7162;SDS011;3623;47.098;15.446;2022-10-20T06:59:05;14.00;;;3.28;;
7162;SDS011;3623;47.098;15.446;2022-10-20T07:01:33;4.07;;;3.50;;
7162;SDS011;3623;47.098;15.446;2022-10-20T07:04:03;3.42;;;3.13;;
7162;SDS011;3623;47.098;15.446;2022-10-20T07:06:31;9.95;;;3.40;;
7162;SDS011;3623;47.098;15.446;2022-10-20T07:09:16;6.15;;;3.95;;
7162;SDS011;3623;47.098;15.446;2022-10-20T07:11:50;4.35;;;3.97;;
7162;SDS011;3623;47.098;15.446;2022-10-20T07:14:21;4.78;;;4.38;;
7162;SDS011;3623;47.098;15.446;2022-10-20T07:16:48;3.97;;;3.60;;
7162;SDS011;3623;47.098;15.446;2022-10-20T07:19:16;5.47;;;3.72;;
7162;SDS011;3623;47.098;15.446;2022-10-20T07:21:43;5.10;;;4.60;;
7162;SDS011;3623;47.098;15.446;2022-10-20T07:24:16;9.70;;;4.82;;
7162;SDS011;3623;47.098;15.446;2022-10-20T07:26:45;7.90;;;3.95;;
7162;SDS011;3623;47.098;15.446;2022-10-20T07:29:12;3.03;;;2.90;;
7162;SDS011;3623;47.098;15.446;2022-10-20T07:31:43;4.80;;;3.30;;
7162;SDS011;3623;47.098;15.446;2022-10-20T07:34:12;6.30;;;3.13;;
7162;SDS011;3623;47.098;15.446;2022-10-20T07:36:53;4.28;;;2.65;;
7162;SDS011;3623;47.098;15.446;2022-10-20T07:39:21;3.70;;;3.15;;
7162;SDS011;3623;47.098;15.446;2022-10-20T07:41:49;3.42;;;3.22;;
7162;SDS011;3623;47.098;15.446;2022-10-20T07:44:16;4.68;;;4.22;;
7162;SDS011;3623;47.098;15.446;2022-10-20T07:46:46;4.75;;;2.53;;
7162;SDS011;3623;47.098;15.446;2022-10-20T07:49:14;2.60;;;2.40;;
7162;SDS011;3623;47.098;15.446;2022-10-20T07:51:51;9.10;;;3.63;;
7162;SDS011;3623;47.098;15.446;2022-10-20T07:54:19;6.35;;;3.20;;
7162;SDS011;3623;47.098;15.446;2022-10-20T07:56:46;4.25;;;3.20;;
7162;SDS011;3623;47.098;15.446;2022-10-20T07:59:13;6.68;;;2.83;;
7162;SDS011;3623;47.098;15.446;2022-10-20T08:01:43;3.22;;;2.97;;
7162;SDS011;3623;47.098;15.446;2022-10-20T08:04:10;4.57;;;2.95;;
7162;SDS011;3623;47.098;15.446;2022-10-20T08:06:44;2.90;;;2.70;;
7162;SDS011;3623;47.098;15.446;2022-10-20T08:09:12;2.78;;;2.10;;
7162;SDS011;3623;47.098;15.446;2022-10-20T08:11:43;4.95;;;2.28;;
7162;SDS011;3623;47.098;15.446;2022-10-20T08:14:10;3.13;;;2.92;;
7162;SDS011;3623;47.098;15.446;2022-10-20T08:16:40;3.40;;;2.70;;
7162;SDS011;3623;47.098;15.446;2022-10-20T08:19:07;2.55;;;2.35;;
7162;SDS011;3623;47.098;15.446;2022-10-20T08:21:34;3.03;;;2.83;;
7162;SDS011;3623;47.098;15.446;2022-10-20T08:24:04;2.25;;;2.05;;
7162;SDS011;3623;47.098;15.446;2022-10-20T08:26:33;3.00;;;2.53;;
7162;SDS011;3623;47.098;15.446;2022-10-20T08:29:00;2.78;;;2.05;;
7162;SDS011;3623;47.098;15.446;2022-10-20T08:31:27;4.27;;;3.00;;
7162;SDS011;3623;47.098;15.446;2022-10-20T08:33:54;2.67;;;2.57;;
7162;SDS011;3623;47.098;15.446;2022-10-20T08:36:21;4.65;;;2.88;;
7162;SDS011;3623;47.098;15.446;2022-10-20T08:38:49;4.83;;;2.73;;
7162;SDS011;3623;47.098;15.446;2022-10-20T08:41:16;5.50;;;3.40;;
7162;SDS011;3623;47.098;15.446;2022-10-20T08:43:47;2.47;;;2.33;;
7162;SDS011;3623;47.098;15.446;2022-10-20T08:46:16;4.80;;;3.60;;
7162;SDS011;3623;47.098;15.446;2022-10-20T08:48:47;7.93;;;2.92;;
7162;SDS011;3623;47.098;15.446;2022-10-20T08:51:23;3.73;;;3.17;;
7162;SDS011;3623;47.098;15.446;2022-10-20T08:53:54;3.67;;;3.37;;
7162;SDS011;3623;47.098;15.446;2022-10-20T08:56:24;3.55;;;3.25;;
7162;SDS011;3623;47.098;15.446;2022-10-20T08:58:56;3.50;;;3.30;;
7162;SDS011;3623;47.098;15.446;2022-10-20T09:01:50;3.70;;;3.50;;
7162;SDS011;3623;47.098;15.446;2022-10-20T09:04:40;3.20;;;2.90;;
7162;SDS011;3623;47.098;15.446;2022-10-20T09:07:30;3.30;;;3.00;;
7162;SDS011;3623;47.098;15.446;2022-10-20T09:10:08;4.77;;;2.70;;
7162;SDS011;3623;47.098;15.446;2022-10-20T09:12:42;3.90;;;3.30;;
7162;SDS011;3623;47.098;15.446;2022-10-20T09:15:18;3.60;;;2.97;;
7162;SDS011;3623;47.098;15.446;2022-10-20T09:18:08;4.60;;;3.20;;
7162;SDS011;3623;47.098;15.446;2022-10-20T09:20:40;3.90;;;3.50;;
7162;SDS011;3623;47.098;15.446;2022-10-20T09:23:12;5.23;;;2.90;;
7162;SDS011;3623;47.098;15.446;2022-10-20T09:25:47;5.60;;;2.90;;
7162;SDS011;3623;47.098;15.446;2022-10-20T09:28:16;3.60;;;2.53;;
7162;SDS011;3623;47.098;15.446;2022-10-20T09:31:02;2.57;;;2.47;;
7162;SDS011;3623;47.098;15.446;2022-10-20T09:33:37;4.20;;;3.10;;
7162;SDS011;3623;47.098;15.446;2022-10-20T09:36:10;4.57;;;3.13;;
7162;SDS011;3623;47.098;15.446;2022-10-20T09:38:41;3.67;;;3.07;;
7162;SDS011;3623;47.098;15.446;2022-10-20T09:41:11;3.03;;;2.80;;
7162;SDS011;3623;47.098;15.446;2022-10-20T09:43:46;4.00;;;3.70;;
7162;SDS011;3623;47.098;15.446;2022-10-20T09:46:33;5.20;;;2.60;;
7162;SDS011;3623;47.098;15.446;2022-10-20T09:49:04;3.43;;;3.00;;
7162;SDS011;3623;47.098;15.446;2022-10-20T09:51:33;3.50;;;2.60;;
7162;SDS011;3623;47.098;15.446;2022-10-20T09:54:01;3.73;;;3.40;;
7162;SDS011;3623;47.098;15.446;2022-10-20T09:56:32;2.97;;;2.77;;
7162;SDS011;3623;47.098;15.446;2022-10-20T09:59:24;2.30;;;2.20;;
7162;SDS011;3623;47.098;15.446;2022-10-20T10:01:58;5.33;;;4.93;;
7162;SDS011;3623;47.098;15.446;2022-10-20T10:05:14;4.17;;;3.07;;
7162;SDS011;3623;47.098;15.446;2022-10-20T10:07:44;11.37;;;3.63;;
7162;SDS011;3623;47.098;15.446;2022-10-20T10:10:33;3.33;;;2.97;;
7162;SDS011;3623;47.098;15.446;2022-10-20T10:13:04;4.27;;;3.87;;
7162;SDS011;3623;47.098;15.446;2022-10-20T10:15:31;7.33;;;3.70;;
7162;SDS011;3623;47.098;15.446;2022-10-20T10:18:12;3.60;;;3.00;;
7162;SDS011;3623;47.098;15.446;2022-10-20T10:20:41;4.50;;;3.13;;
7162;SDS011;3623;47.098;15.446;2022-10-20T10:23:18;3.73;;;2.97;;
7162;SDS011;3623;47.098;15.446;2022-10-20T10:25:50;4.90;;;2.97;;
7162;SDS011;3623;47.098;15.446;2022-10-20T10:31:18;3.20;;;3.00;;
7162;SDS011;3623;47.098;15.446;2022-10-20T10:33:51;5.77;;;3.10;;
7162;SDS011;3623;47.098;15.446;2022-10-20T10:36:26;3.43;;;3.20;;
7162;SDS011;3623;47.098;15.446;2022-10-20T10:38:56;3.20;;;2.90;;
7162;SDS011;3623;47.098;15.446;2022-10-20T10:44:22;3.50;;;3.20;;
7162;SDS011;3623;47.098;15.446;2022-10-20T10:47:00;4.30;;;3.73;;
7162;SDS011;3623;47.098;15.446;2022-10-20T10:49:39;4.30;;;3.20;;
7162;SDS011;3623;47.098;15.446;2022-10-20T10:52:20;3.87;;;3.50;;
7162;SDS011;3623;47.098;15.446;2022-10-20T10:55:01;3.97;;;3.13;;
7162;SDS011;3623;47.098;15.446;2022-10-20T10:57:46;3.10;;;2.90;;
7162;SDS011;3623;47.098;15.446;2022-10-20T11:00:30;3.60;;;3.30;;
7162;SDS011;3623;47.098;15.446;2022-10-20T11:03:16;4.07;;;3.77;;
7162;SDS011;3623;47.098;15.446;2022-10-20T11:06:01;4.03;;;3.63;;
7162;SDS011;3623;47.098;15.446;2022-10-20T11:08:37;3.40;;;3.20;;
7162;SDS011;3623;47.098;15.446;2022-10-20T11:11:38;4.37;;;3.10;;
7162;SDS011;3623;47.098;15.446;2022-10-20T11:14:31;5.63;;;3.37;;
7162;SDS011;3623;47.098;15.446;2022-10-20T11:17:15;7.37;;;4.17;;
7162;SDS011;3623;47.098;15.446;2022-10-20T11:22:49;5.33;;;3.90;;
7162;SDS011;3623;47.098;15.446;2022-10-20T11:25:36;3.93;;;3.60;;
7162;SDS011;3623;47.098;15.446;2022-10-20T11:28:12;4.63;;;4.33;;
7162;SDS011;3623;47.098;15.446;2022-10-20T11:30:53;7.07;;;3.97;;
7162;SDS011;3623;47.098;15.446;2022-10-20T11:33:23;5.93;;;4.13;;
7162;SDS011;3623;47.098;15.446;2022-10-20T11:35:55;9.20;;;4.53;;
7162;SDS011;3623;47.098;15.446;2022-10-20T11:38:30;8.23;;;3.77;;
7162;SDS011;3623;47.098;15.446;2022-10-20T11:41:10;6.67;;;4.37;;
7162;SDS011;3623;47.098;15.446;2022-10-20T11:43:42;6.60;;;5.13;;
7162;SDS011;3623;47.098;15.446;2022-10-20T11:46:17;4.30;;;3.97;;
7162;SDS011;3623;47.098;15.446;2022-10-20T11:48:48;4.03;;;3.70;;
7162;SDS011;3623;47.098;15.446;2022-10-20T11:57:37;7.63;;;4.23;;
7162;SDS011;3623;47.098;15.446;2022-10-20T12:00:22;6.10;;;4.40;;
7162;SDS011;3623;47.098;15.446;2022-10-20T12:06:15;6.70;;;4.03;;
7162;SDS011;3623;47.098;15.446;2022-10-20T12:09:04;10.80;;;5.27;;
7162;SDS011;3623;47.098;15.446;2022-10-20T12:12:04;8.03;;;5.30;;
7162;SDS011;3623;47.098;15.446;2022-10-20T12:14:36;6.10;;;4.87;;
7162;SDS011;3623;47.098;15.446;2022-10-20T12:17:14;5.90;;;5.30;;
7162;SDS011;3623;47.098;15.446;2022-10-20T12:19:48;11.43;;;4.97;;
7162;SDS011;3623;47.098;15.446;2022-10-20T12:22:36;8.40;;;5.60;;
7162;SDS011;3623;47.098;15.446;2022-10-20T12:31:07;8.73;;;6.17;;
7162;SDS011;3623;47.098;15.446;2022-10-20T12:33:39;18.67;;;6.67;;
7162;SDS011;3623;47.098;15.446;2022-10-20T12:39:18;5.70;;;5.20;;
7162;SDS011;3623;47.098;15.446;2022-10-20T12:41:54;9.47;;;6.30;;
7162;SDS011;3623;47.098;15.446;2022-10-20T12:44:37;11.27;;;5.03;;
7162;SDS011;3623;47.098;15.446;2022-10-20T12:47:07;5.77;;;4.60;;
7162;SDS011;3623;47.098;15.446;2022-10-20T12:49:36;8.33;;;4.53;;
7162;SDS011;3623;47.098;15.446;2022-10-20T12:52:06;4.73;;;4.40;;
7162;SDS011;3623;47.098;15.446;2022-10-20T12:54:42;5.63;;;5.13;;
7162;SDS011;3623;47.098;15.446;2022-10-20T12:57:23;5.97;;;4.50;;
7162;SDS011;3623;47.098;15.446;2022-10-20T12:59:55;4.70;;;4.30;;
7162;SDS011;3623;47.098;15.446;2022-10-20T13:05:38;5.53;;;4.93;;
7162;SDS011;3623;47.098;15.446;2022-10-20T13:08:20;10.63;;;5.20;;
7162;SDS011;3623;47.098;15.446;2022-10-20T13:10:56;6.50;;;5.40;;
7162;SDS011;3623;47.098;15.446;2022-10-20T13:16:26;5.37;;;4.87;;
7162;SDS011;3623;47.098;15.446;2022-10-20T13:18:59;6.10;;;5.60;;
7162;SDS011;3623;47.098;15.446;2022-10-20T13:21:32;5.17;;;4.67;;
7162;SDS011;3623;47.098;15.446;2022-10-20T13:24:00;5.70;;;5.07;;
7162;SDS011;3623;47.098;15.446;2022-10-20T13:26:45;4.40;;;3.67;;
7162;SDS011;3623;47.098;15.446;2022-10-20T13:29:19;7.90;;;4.30;;
7162;SDS011;3623;47.098;15.446;2022-10-20T13:31:59;7.17;;;4.80;;
7162;SDS011;3623;47.098;15.446;2022-10-20T13:34:40;6.33;;;4.53;;
7162;SDS011;3623;47.098;15.446;2022-10-20T13:37:44;9.80;;;4.70;;
7162;SDS011;3623;47.098;15.446;2022-10-20T13:43:51;5.60;;;5.03;;
7162;SDS011;3623;47.098;15.446;2022-10-20T13:46:36;7.83;;;5.77;;
7162;SDS011;3623;47.098;15.446;2022-10-20T13:49:33;6.53;;;5.83;;
7162;SDS011;3623;47.098;15.446;2022-10-20T13:52:20;5.33;;;4.60;;
7162;SDS011;3623;47.098;15.446;2022-10-20T13:54:48;5.90;;;5.40;;
7162;SDS011;3623;47.098;15.446;2022-10-20T13:57:19;8.30;;;5.47;;
7162;SDS011;3623;47.098;15.446;2022-10-20T14:00:02;6.27;;;5.60;;
7162;SDS011;3623;47.098;15.446;2022-10-20T14:02:50;11.60;;;4.17;;
7162;SDS011;3623;47.098;15.446;2022-10-20T14:05:29;6.10;;;5.50;;
7162;SDS011;3623;47.098;15.446;2022-10-20T14:08:21;6.67;;;5.17;;
7162;SDS011;3623;47.098;15.446;2022-10-20T14:10:52;5.07;;;4.60;;
7162;SDS011;3623;47.098;15.446;2022-10-20T14:13:35;4.70;;;4.30;;
7162;SDS011;3623;47.098;15.446;2022-10-20T14:16:17;7.77;;;5.30;;
7162;SDS011;3623;47.098;15.446;2022-10-20T14:18:58;6.87;;;5.03;;
7162;SDS011;3623;47.098;15.446;2022-10-20T14:21:27;6.27;;;5.07;;
7162;SDS011;3623;47.098;15.446;2022-10-20T14:24:00;4.60;;;4.30;;
7162;SDS011;3623;47.098;15.446;2022-10-20T14:26:36;4.70;;;4.40;;
7162;SDS011;3623;47.098;15.446;2022-10-20T14:29:16;9.00;;;5.20;;
7162;SDS011;3623;47.098;15.446;2022-10-20T14:31:47;6.50;;;5.67;;
7162;SDS011;3623;47.098;15.446;2022-10-20T14:34:23;7.50;;;6.47;;
7162;SDS011;3623;47.098;15.446;2022-10-20T14:36:58;6.63;;;4.43;;
7162;SDS011;3623;47.098;15.446;2022-10-20T14:39:31;4.63;;;4.27;;
7162;SDS011;3623;47.098;15.446;2022-10-20T14:42:02;5.63;;;4.00;;
7162;SDS011;3623;47.098;15.446;2022-10-20T14:44:33;7.53;;;4.43;;
7162;SDS011;3623;47.098;15.446;2022-10-20T14:47:03;8.60;;;4.90;;
7162;SDS011;3623;47.098;15.446;2022-10-20T14:49:51;6.30;;;5.20;;
7162;SDS011;3623;47.098;15.446;2022-10-20T14:52:28;7.33;;;4.67;;
7162;SDS011;3623;47.098;15.446;2022-10-20T14:55:01;8.30;;;5.13;;
7162;SDS011;3623;47.098;15.446;2022-10-20T14:57:29;10.10;;;5.43;;
7162;SDS011;3623;47.098;15.446;2022-10-20T15:00:23;5.90;;;4.80;;
7162;SDS011;3623;47.098;15.446;2022-10-20T15:02:52;8.90;;;5.73;;
7162;SDS011;3623;47.098;15.446;2022-10-20T15:05:30;13.10;;;5.83;;
7162;SDS011;3623;47.098;15.446;2022-10-20T15:08:23;6.63;;;6.03;;
7162;SDS011;3623;47.098;15.446;2022-10-20T15:10:52;9.70;;;6.47;;
7162;SDS011;3623;47.098;15.446;2022-10-20T15:13:26;5.77;;;5.10;;
7162;SDS011;3623;47.098;15.446;2022-10-20T15:15:55;7.23;;;5.73;;
7162;SDS011;3623;47.098;15.446;2022-10-20T15:18:24;5.50;;;5.00;;
7162;SDS011;3623;47.098;15.446;2022-10-20T15:20:51;7.17;;;5.97;;
7162;SDS011;3623;47.098;15.446;2022-10-20T15:23:21;6.97;;;6.03;;
7162;SDS011;3623;47.098;15.446;2022-10-20T15:25:50;8.07;;;5.70;;
7162;SDS011;3623;47.098;15.446;2022-10-20T15:28:21;9.30;;;5.93;;
7162;SDS011;3623;47.098;15.446;2022-10-20T15:31:04;11.93;;;6.40;;
7162;SDS011;3623;47.098;15.446;2022-10-20T15:33:33;9.07;;;5.30;;
7162;SDS011;3623;47.098;15.446;2022-10-20T15:36:00;13.07;;;5.90;;
7162;SDS011;3623;47.098;15.446;2022-10-20T15:38:28;5.77;;;5.23;;
7162;SDS011;3623;47.098;15.446;2022-10-20T15:41:04;8.60;;;5.03;;
7162;SDS011;3623;47.098;15.446;2022-10-20T15:43:31;8.10;;;6.83;;
7162;SDS011;3623;47.098;15.446;2022-10-20T15:45:59;9.80;;;5.80;;
7162;SDS011;3623;47.098;15.446;2022-10-20T15:48:26;7.03;;;6.13;;
7162;SDS011;3623;47.098;15.446;2022-10-20T15:50:53;6.50;;;6.00;;
7162;SDS011;3623;47.098;15.446;2022-10-20T15:53:23;7.40;;;5.77;;
7162;SDS011;3623;47.098;15.446;2022-10-20T15:55:52;6.90;;;6.03;;
7162;SDS011;3623;47.098;15.446;2022-10-20T15:58:19;12.05;;;8.85;;
7162;SDS011;3623;47.098;15.446;2022-10-20T16:00:48;12.75;;;10.30;;
7162;SDS011;3623;47.098;15.446;2022-10-20T16:03:16;12.27;;;9.05;;
7162;SDS011;3623;47.098;15.446;2022-10-20T16:05:45;15.35;;;8.10;;
7162;SDS011;3623;47.098;15.446;2022-10-20T16:08:12;9.43;;;7.23;;
7162;SDS011;3623;47.098;15.446;2022-10-20T16:10:39;7.75;;;6.55;;
7162;SDS011;3623;47.098;15.446;2022-10-20T16:13:09;8.00;;;6.80;;
7162;SDS011;3623;47.098;15.446;2022-10-20T16:15:36;7.97;;;7.17;;
7162;SDS011;3623;47.098;15.446;2022-10-20T16:18:03;6.68;;;5.85;;
7162;SDS011;3623;47.098;15.446;2022-10-20T16:20:30;7.03;;;5.05;;
7162;SDS011;3623;47.098;15.446;2022-10-20T16:22:59;7.93;;;6.22;;
7162;SDS011;3623;47.098;15.446;2022-10-20T16:25:26;9.65;;;6.80;;